createdAt,value
2022-10-17T00:01:33.810Z,93.40
2022-10-17T00:06:35.583Z,93.34
2022-10-17T00:11:37.173Z,93.29
2022-10-17T00:16:39.187Z,93.42
2022-10-17T00:21:40.897Z,93.32
2022-10-17T00:26:42.662Z,93.48
2022-10-17T00:31:44.200Z,93.48
2022-10-17T00:36:46.231Z,93.43
2022-10-17T00:41:47.789Z,93.38
2022-10-17T00:46:49.248Z,93.37
2022-10-17T00:51:56.015Z,93.46
2022-10-17T00:56:58.125Z,93.59
2022-10-17T01:02:16.743Z,93.25
2022-10-17T01:07:18.653Z,93.36
2022-10-17T01:12:24.927Z,93.23
2022-10-17T01:17:49.820Z,93.24
2022-10-17T01:23:03.191Z,93.12
2022-10-17T01:28:15.288Z,93.33
2022-10-17T01:33:42.220Z,93.30
2022-10-17T01:38:49.540Z,93.26
2022-10-17T01:44:01.640Z,93.28
2022-10-17T01:49:08.077Z,93.21
2022-10-17T01:54:21.791Z,93.03
2022-10-17T01:59:28.844Z,92.92
2022-10-17T02:04:30.933Z,92.73
2022-10-17T02:09:32.861Z,92.51
2022-10-17T02:14:41.814Z,92.40
2022-10-17T02:20:05.693Z,92.24
2022-10-17T02:25:45.632Z,91.85
2022-10-17T02:30:54.697Z,91.80
2022-10-17T02:36:01.469Z,91.79
2022-10-17T02:41:07.277Z,91.87
2022-10-17T02:46:09.251Z,91.85
2022-10-17T02:51:33.221Z,92.15
2022-10-17T02:56:43.257Z,92.23
2022-10-17T03:01:45.027Z,92.40
2022-10-17T03:06:48.279Z,92.54
2022-10-17T03:11:50.919Z,92.47
2022-10-17T03:16:53.945Z,92.78
2022-10-17T03:21:56.462Z,92.93
2022-10-17T03:26:58.111Z,93.08
2022-10-17T03:32:00.307Z,93.00
2022-10-17T03:37:02.091Z,93.03
2022-10-17T03:42:06.073Z,93.34
2022-10-17T03:47:10.449Z,93.53
2022-10-17T03:52:15.347Z,93.59
2022-10-17T03:57:18.793Z,93.65
2022-10-17T04:02:21.237Z,93.58
2022-10-17T04:07:24.528Z,93.90
2022-10-17T04:12:26.715Z,94.09
2022-10-17T04:17:35.775Z,94.27
2022-10-17T04:22:39.959Z,94.56
2022-10-17T04:27:41.547Z,94.59
2022-10-17T04:32:43.645Z,94.85
2022-10-17T04:37:53.964Z,95.16
2022-10-17T04:42:55.921Z,95.36
2022-10-17T04:48:05.590Z,95.55
2022-10-17T04:53:07.163Z,95.88
2022-10-17T04:58:09.410Z,96.01
2022-10-17T05:03:12.613Z,96.28
2022-10-17T05:08:14.419Z,96.35
2022-10-17T05:13:16.475Z,96.58
2022-10-17T05:18:18.028Z,96.59
2022-10-17T05:23:20.132Z,96.77
2022-10-17T05:28:22.926Z,96.82
2022-10-17T05:33:25.359Z,97.12
2022-10-17T05:38:27.771Z,97.33
2022-10-17T05:43:30.201Z,97.16
2022-10-17T05:48:31.953Z,97.32
2022-10-17T05:53:37.066Z,97.42
2022-10-17T05:58:53.213Z,97.63
2022-10-17T06:04:15.507Z,97.62
2022-10-17T06:09:18.006Z,97.65
2022-10-17T06:14:23.131Z,97.81
2022-10-17T06:19:28.343Z,97.92
2022-10-17T06:24:30.144Z,97.98
2022-10-17T06:29:31.994Z,98.16
2022-10-17T06:34:33.827Z,98.12
2022-10-17T06:39:35.898Z,98.16
2022-10-17T06:44:45.821Z,97.94
2022-10-17T06:50:09.075Z,97.67
2022-10-17T06:55:23.394Z,97.57
2022-10-17T07:00:45.743Z,97.14
2022-10-17T07:05:55.389Z,97.18
2022-10-17T07:10:58.217Z,96.73
2022-10-17T07:16:02.046Z,96.66
2022-10-17T07:21:07.804Z,96.00
2022-10-17T07:26:14.947Z,95.72
2022-10-17T07:31:19.272Z,95.48
2022-10-17T07:36:21.644Z,95.24
2022-10-17T07:41:23.603Z,94.38
2022-10-17T07:46:25.993Z,92.03
2022-10-17T07:51:28.102Z,90.29
2022-10-17T07:56:29.636Z,90.31
2022-10-17T08:01:31.656Z,90.40
2022-10-17T08:06:33.119Z,88.97
2022-10-17T08:11:36.326Z,87.63
2022-10-17T08:16:38.252Z,88.09
2022-10-17T08:21:41.312Z,88.52
2022-10-17T08:26:44.040Z,88.71
2022-10-17T08:31:48.978Z,88.45
2022-10-17T08:36:51.704Z,87.53
2022-10-17T08:42:19.573Z,86.86
2022-10-17T08:47:34.173Z,85.94
2022-10-17T08:52:48.203Z,85.57
2022-10-17T08:57:49.881Z,85.39
2022-10-17T09:03:19.783Z,84.86
2022-10-17T09:08:40.024Z,84.31
2022-10-17T09:14:08.371Z,84.33
2022-10-17T09:19:17.274Z,83.75
2022-10-17T09:24:27.785Z,82.88
2022-10-17T09:29:36.044Z,82.94
2022-10-17T09:34:39.520Z,82.73
2022-10-17T09:39:43.390Z,82.54
2022-10-17T09:45:13.104Z,82.29
2022-10-17T09:50:26.611Z,82.07
2022-10-17T09:55:49.760Z,82.27
2022-10-17T10:00:51.412Z,82.51
2022-10-17T10:06:20.026Z,82.79
2022-10-17T10:11:46.733Z,83.05
2022-10-17T10:16:49.990Z,83.26
2022-10-17T10:21:57.144Z,83.23
2022-10-17T10:27:23.037Z,83.23
2022-10-17T10:32:36.966Z,83.34
2022-10-17T10:37:39.777Z,83.20
2022-10-17T10:42:42.180Z,83.35
2022-10-17T10:47:55.752Z,83.61
2022-10-17T10:53:19.940Z,83.30
2022-10-17T10:58:33.625Z,83.31
2022-10-17T11:09:00.615Z,83.06
2022-10-17T11:14:13.747Z,82.99
2022-10-17T11:19:37.039Z,83.29
2022-10-17T11:25:06.337Z,84.03
2022-10-17T11:30:13.927Z,84.99
2022-10-17T11:35:15.396Z,85.90
2022-10-17T11:40:30.409Z,86.18
2022-10-17T11:45:39.234Z,87.08
2022-10-17T11:58:23.133Z,89.85
2022-10-17T12:03:50.201Z,90.67
2022-10-17T12:09:21.075Z,91.89
2022-10-17T12:14:47.007Z,92.95
2022-10-17T12:19:48.708Z,93.41
2022-10-17T12:25:30.550Z,93.61
2022-10-17T12:30:34.380Z,94.30
2022-10-17T12:35:37.931Z,94.65
2022-10-17T12:40:45.123Z,95.00
2022-10-17T12:45:58.038Z,95.56
2022-10-17T12:51:36.482Z,95.71
2022-10-17T12:56:41.163Z,96.06
2022-10-17T13:01:47.390Z,96.37
2022-10-17T13:06:54.391Z,96.75
2022-10-17T13:12:00.947Z,96.87
2022-10-17T13:18:01.999Z,97.05
2022-10-17T13:29:44.914Z,97.71
2022-10-17T13:36:07.323Z,97.72
2022-10-17T13:46:50.082Z,97.77
2022-10-17T13:52:06.547Z,97.66
2022-10-17T13:57:25.925Z,97.77
2022-10-17T14:02:30.305Z,97.80
2022-10-17T14:08:09.505Z,97.63
2022-10-17T14:13:04.665Z,97.67
2022-10-17T14:18:08.919Z,97.92
2022-10-17T14:23:30.552Z,97.66
2022-10-17T14:28:32.274Z,97.97
2022-10-17T14:33:37.362Z,97.88
2022-10-17T14:38:47.663Z,98.33
2022-10-17T14:43:58.004Z,98.35
2022-10-17T14:49:07.981Z,98.33
2022-10-17T14:54:25.727Z,98.45
2022-10-17T14:59:53.847Z,98.61
2022-10-17T15:04:48.741Z,98.80
2022-10-17T15:09:52.667Z,99.03
2022-10-17T15:14:54.987Z,99.03
2022-10-17T15:19:57.565Z,99.18
2022-10-17T15:24:59.028Z,99.04
2022-10-17T15:30:01.578Z,99.21
2022-10-17T15:35:04.317Z,99.44
2022-10-17T15:40:06.761Z,99.46
2022-10-17T15:45:11.240Z,99.40
2022-10-17T15:50:17.124Z,99.27
2022-10-17T15:55:19.918Z,99.26
2022-10-17T16:00:25.229Z,99.48
2022-10-17T16:05:26.888Z,99.63
2022-10-17T16:10:28.423Z,99.29
2022-10-17T16:15:30.042Z,99.20
2022-10-17T16:20:32.018Z,99.52
2022-10-17T16:25:34.293Z,99.42
2022-10-17T16:30:42.510Z,99.50
2022-10-17T16:35:45.980Z,99.54
2022-10-17T16:40:47.458Z,99.28
2022-10-17T16:45:50.124Z,99.34
2022-10-17T16:50:51.747Z,99.04
2022-10-17T16:56:04.692Z,99.00
2022-10-17T17:01:09.839Z,98.86
2022-10-17T17:06:16.763Z,99.08
2022-10-17T17:11:20.537Z,99.08
2022-10-17T17:16:23.776Z,98.92
2022-10-17T17:21:26.929Z,99.12
2022-10-17T17:26:31.218Z,99.01
2022-10-17T17:31:34.398Z,98.95
2022-10-17T17:36:38.301Z,99.04
2022-10-17T17:41:41.307Z,99.15
2022-10-17T17:46:46.988Z,99.21
2022-10-17T17:51:48.595Z,99.40
2022-10-17T17:56:52.603Z,99.24
2022-10-17T18:01:54.225Z,99.08
2022-10-17T18:12:11.254Z,99.50
2022-10-17T18:17:12.755Z,99.42
2022-10-17T18:22:14.662Z,99.27
2022-10-17T18:27:16.750Z,99.44
2022-10-17T18:32:18.323Z,99.59
2022-10-17T18:37:19.941Z,99.68
2022-10-17T18:42:21.512Z,99.43
2022-10-17T18:47:23.273Z,99.46
2022-10-17T18:52:28.613Z,99.41
2022-10-17T18:57:30.376Z,99.70
2022-10-17T19:02:35.567Z,99.83
2022-10-17T19:07:39.556Z,99.91
2022-10-17T19:12:41.259Z,100.00
2022-10-17T19:17:43.245Z,99.86
2022-10-17T19:22:45.046Z,100.00
2022-10-17T19:27:53.683Z,100.00
2022-10-17T19:32:55.257Z,99.99
2022-10-17T19:37:57.190Z,100.00
2022-10-17T19:42:58.938Z,100.00
2022-10-17T19:48:00.498Z,100.00
2022-10-17T19:53:02.045Z,100.00
2022-10-17T19:58:03.591Z,100.00
2022-10-17T20:03:06.955Z,100.00
2022-10-17T20:08:08.727Z,100.00
2022-10-17T20:13:13.649Z,100.00
2022-10-17T20:18:15.160Z,100.00
2022-10-17T20:23:16.912Z,100.00
2022-10-17T20:28:18.546Z,100.00
2022-10-17T20:33:20.538Z,100.00
2022-10-17T20:38:22.168Z,100.00
2022-10-17T20:43:23.774Z,100.00
2022-10-17T20:48:30.690Z,100.00
2022-10-17T20:53:37.266Z,100.00
2022-10-17T20:58:39.479Z,100.00
2022-10-17T21:03:44.019Z,100.00
2022-10-17T21:08:48.821Z,100.00
2022-10-17T21:14:17.049Z,100.00
2022-10-17T21:19:18.786Z,100.00
2022-10-17T21:24:20.772Z,100.00
2022-10-17T21:29:23.434Z,100.00
2022-10-17T21:34:25.165Z,100.00
2022-10-17T21:39:28.248Z,100.00
2022-10-17T21:44:32.820Z,100.00
2022-10-17T21:49:34.328Z,100.00
2022-10-17T21:54:36.025Z,100.00
2022-10-17T21:59:37.654Z,100.00
2022-10-17T22:04:39.328Z,100.00
2022-10-17T22:09:42.721Z,100.00
2022-10-17T22:14:44.421Z,100.00
2022-10-17T22:19:47.319Z,100.00
2022-10-17T22:24:48.932Z,100.00
2022-10-17T22:29:56.907Z,100.00
2022-10-17T22:35:04.846Z,100.00
2022-10-17T22:40:07.478Z,100.00
2022-10-17T22:45:09.479Z,100.00
2022-10-17T22:50:18.103Z,100.00
2022-10-17T22:55:20.113Z,100.00
2022-10-17T23:00:21.812Z,100.00
2022-10-17T23:05:23.570Z,100.00
2022-10-17T23:10:25.154Z,100.00
2022-10-17T23:15:26.755Z,100.00
2022-10-17T23:20:29.371Z,100.00
2022-10-17T23:25:32.772Z,100.00
2022-10-17T23:30:34.622Z,100.00
2022-10-17T23:35:36.186Z,100.00
2022-10-17T23:40:38.006Z,100.00
2022-10-17T23:45:49.793Z,100.00
2022-10-17T23:50:51.293Z,100.00
2022-10-17T23:55:53.264Z,100.00
